Dawn Trader — WDF6146 — position and weather

sailwx.info

Track history (hours):
 
Tides and Currents Weather Stations Pressure Air Temp Water Temp Dewpoint Dewpoint Depression Visibility Wind Speed Wind Dir Waves Ship Positions

Dawn Trader

Owner: Hyman, Ronald M, North Palm Beach, FL. More information available from US FCC via Universal Licensing System.

Last reported at 2018-Jan-31 18:32 UTC. Time now 2018-Feb-22 15:16 UTC.
Position N 24°16' W 110°21'.
Warning: this ship's position is 21 days out of date.

Length 11 m.

Type: Sailing vessel. MMSI: 367471140.

Date/timePositionNaut miles runAvg speedWind from/ knotsBaromVisibWave heightAir tempDewpointWater temp
2018-Jan-31 18:32N 24°16' W 110°21'4 3.9
2018-Jan-31 17:38N 24°13' W 110°19'1 3.9
2018-Jan-31 17:29N 24°13' W 110°18'2 4.1
2018-Jan-31 17:00N 24°11' W 110°18'2 4.1
2018-Jan-31 16:30N 24°10' W 110°20'2 4.1
2018-Jan-31 15:59N 24°08' W 110°22'  
2018-Jan-23 20:43N 24°07' W 110°21'1 5.0
2018-Jan-23 20:29N 24°08' W 110°22'1 2.8
2018-Jan-23 19:59N 24°09' W 110°21'2 4.2
2018-Jan-23 19:29N 24°10' W 110°19'3 3.6
2018-Jan-23 18:46N 24°13' W 110°19'1 3.6
2018-Jan-23 18:30N 24°14' W 110°19'  
Track history (hours):
 
Tides and Currents Weather Stations Pressure Air Temp Water Temp Dewpoint Dewpoint Depression Visibility Wind Speed Wind Dir Waves Ship Positions

Dawn Trader

Owner: Hyman, Ronald M, North Palm Beach, FL. More information available from US FCC via Universal Licensing System.

Last reported at 2018-Jan-31 18:32 UTC. Time now 2018-Feb-22 15:16 UTC.
Position N 24°16' W 110°21'.
Warning: this ship's position is 21 days out of date.

Length 11 m.

Type: Sailing vessel. MMSI: 367471140.

Date/timePositionNaut miles runAvg speedWind from/ knotsBaromVisibWave heightAir tempDewpointWater temp
2018-Jan-31 18:32N 24°16' W 110°21'4 3.9
2018-Jan-31 17:38N 24°13' W 110°19'1 3.9
2018-Jan-31 17:29N 24°13' W 110°18'2 4.1
2018-Jan-31 17:00N 24°11' W 110°18'2 4.1
2018-Jan-31 16:30N 24°10' W 110°20'2 4.1
2018-Jan-31 15:59N 24°08' W 110°22'  
2018-Jan-23 20:43N 24°07' W 110°21'1 5.0
2018-Jan-23 20:29N 24°08' W 110°22'1 2.8
2018-Jan-23 19:59N 24°09' W 110°21'2 4.2
2018-Jan-23 19:29N 24°10' W 110°19'3 3.6
2018-Jan-23 18:46N 24°13' W 110°19'1 3.6
2018-Jan-23 18:30N 24°14' W 110°19'  

Dump ship's entire track history